createdAt,value
2022-08-09T00:01:57.615Z,18.12
2022-08-09T00:04:35.134Z,18.10
2022-08-09T00:07:07.647Z,18.06
2022-08-09T00:09:43.069Z,18.02
2022-08-09T00:12:22.388Z,17.98
2022-08-09T00:15:06.647Z,17.97
2022-08-09T00:18:05.425Z,17.98
2022-08-09T00:20:26.586Z,17.99
2022-08-09T00:23:09.918Z,17.97
2022-08-09T00:25:53.413Z,17.94
2022-08-09T00:28:23.511Z,17.93
2022-08-09T00:30:57.125Z,17.92
2022-08-09T00:33:48.767Z,17.91
2022-08-09T00:36:16.574Z,17.89
2022-08-09T00:38:46.294Z,17.90
2022-08-09T00:44:14.160Z,17.89
2022-08-09T00:44:27.383Z,17.87
2022-08-09T00:47:04.837Z,17.85
2022-08-09T00:49:36.752Z,17.86
2022-08-09T00:52:17.352Z,17.85
2022-08-09T00:54:48.576Z,17.84
2022-08-09T00:57:24.767Z,17.84
2022-08-09T01:00:21.411Z,17.80
2022-08-09T01:02:54.696Z,17.76
2022-08-09T01:05:50.728Z,17.74
2022-08-09T01:08:26.691Z,17.71
2022-08-09T01:11:02.811Z,17.67
2022-08-09T01:13:58.754Z,17.65
2022-08-09T01:16:31.225Z,17.65
2022-08-09T01:19:04.534Z,17.62
2022-08-09T01:21:51.124Z,17.59
2022-08-09T01:24:31.029Z,17.55
2022-08-09T01:27:07.928Z,17.53
2022-08-09T01:29:55.131Z,17.52
2022-08-09T01:32:34.132Z,17.50
2022-08-09T01:35:37.296Z,17.50
2022-08-09T01:38:15.131Z,17.47
2022-08-09T01:40:52.926Z,17.43
2022-08-09T01:43:42.035Z,17.40
2022-08-09T01:46:26.355Z,17.37
2022-08-09T01:48:59.902Z,17.35
2022-08-09T01:51:32.195Z,17.27
2022-08-09T01:54:04.630Z,17.21
2022-08-09T01:56:36.510Z,17.15
2022-08-09T01:59:16.002Z,17.12
2022-08-09T02:02:00.358Z,17.10
2022-08-09T02:04:32.051Z,17.06
2022-08-09T02:07:18.383Z,17.07
2022-08-09T02:10:04.586Z,17.06
2022-08-09T02:12:35.777Z,17.01
2022-08-09T02:15:11.804Z,16.97
2022-08-09T02:18:09.776Z,16.94
2022-08-09T02:20:43.213Z,16.92
2022-08-09T02:23:17.934Z,16.93
2022-08-09T02:25:55.576Z,16.89
2022-08-09T02:28:32.099Z,16.87
2022-08-09T02:31:06.234Z,16.86
2022-08-09T02:34:07.121Z,16.84
2022-08-09T02:36:32.616Z,16.83
2022-08-09T02:39:07.381Z,16.81
2022-08-09T02:41:46.873Z,16.79
2022-08-09T02:44:30.498Z,16.78
2022-08-09T02:47:06.227Z,16.77
2022-08-09T02:49:38.781Z,16.73
2022-08-09T02:52:12.806Z,16.71
2022-08-09T02:54:54.734Z,16.69
2022-08-09T02:57:26.729Z,16.67
2022-08-09T02:59:57.924Z,16.63
2022-08-09T03:03:00.498Z,16.59
2022-08-09T03:05:34.228Z,16.54
2022-08-09T03:08:05.049Z,16.50
2022-08-09T03:10:35.980Z,16.48
2022-08-09T03:13:08.268Z,16.47
2022-08-09T03:16:04.902Z,16.41
2022-08-09T03:18:31.230Z,16.38
2022-08-09T03:21:03.010Z,16.33
2022-08-09T03:23:33.160Z,16.28
2022-08-09T03:26:05.184Z,16.27
2022-08-09T03:28:35.920Z,16.26
2022-08-09T03:31:10.474Z,16.24
2022-08-09T03:33:56.451Z,16.22
2022-08-09T03:36:28.136Z,16.20
2022-08-09T03:38:59.373Z,16.20
2022-08-09T03:41:46.026Z,16.18
2022-08-09T03:44:18.417Z,16.21
2022-08-09T03:46:48.861Z,16.23
2022-08-09T03:49:21.693Z,16.21
2022-08-09T03:52:00.355Z,16.21
2022-08-09T03:54:38.230Z,16.23
2022-08-09T03:57:19.915Z,16.24
2022-08-09T03:59:54.932Z,16.24
2022-08-09T04:02:28.532Z,16.24
2022-08-09T04:05:06.372Z,16.30
2022-08-09T04:07:53.506Z,16.35
2022-08-09T04:10:29.145Z,16.42
2022-08-09T04:13:04.014Z,16.45
2022-08-09T04:16:17.258Z,16.45
2022-08-09T04:18:24.955Z,16.49
2022-08-09T04:20:57.491Z,16.50
2022-08-09T04:23:27.198Z,16.51
2022-08-09T04:25:57.381Z,16.50
2022-08-09T04:28:33.367Z,16.49
2022-08-09T04:31:12.941Z,16.48
2022-08-09T04:33:51.981Z,16.50
2022-08-09T04:36:28.002Z,16.52
2022-08-09T04:38:59.483Z,16.58
2022-08-09T04:41:33.097Z,16.61
2022-08-09T04:44:06.703Z,16.64
2022-08-09T04:46:59.648Z,16.70
2022-08-09T04:49:53.881Z,16.78
2022-08-09T04:52:29.398Z,16.82
2022-08-09T04:55:02.570Z,16.80
2022-08-09T04:57:58.937Z,16.80
2022-08-09T05:00:31.821Z,16.85
2022-08-09T05:03:30.102Z,16.89
2022-08-09T05:06:06.744Z,16.94
2022-08-09T05:08:43.886Z,16.99
2022-08-09T05:11:17.630Z,17.03
2022-08-09T05:13:50.760Z,17.04
2022-08-09T05:16:31.491Z,17.07
2022-08-09T05:19:02.890Z,17.13
2022-08-09T05:21:46.506Z,17.19
2022-08-09T05:24:19.190Z,17.23
2022-08-09T05:26:49.233Z,17.27
2022-08-09T05:29:21.059Z,17.32
2022-08-09T05:31:57.547Z,17.33
2022-08-09T05:34:31.055Z,17.36
2022-08-09T05:37:05.013Z,17.40
2022-08-09T05:39:43.704Z,17.43
2022-08-09T05:42:17.438Z,17.47
2022-08-09T05:44:54.904Z,17.50
2022-08-09T05:47:27.237Z,17.55
2022-08-09T05:50:31.070Z,17.62
2022-08-09T05:52:53.541Z,17.68
2022-08-09T05:55:26.590Z,17.74
2022-08-09T05:57:58.386Z,17.80
2022-08-09T06:00:29.493Z,17.86
2022-08-09T06:03:00.041Z,17.93
2022-08-09T06:05:50.011Z,17.99
2022-08-09T06:08:24.064Z,18.06
2022-08-09T06:10:58.006Z,18.15
2022-08-09T06:13:33.671Z,18.22
2022-08-09T06:16:04.834Z,18.33
2022-08-09T06:18:35.121Z,18.43
2022-08-09T06:21:08.102Z,18.56
2022-08-09T06:23:58.237Z,18.70
2022-08-09T06:26:30.191Z,18.88
2022-08-09T06:29:05.185Z,19.05
2022-08-09T06:31:40.301Z,19.32
2022-08-09T06:34:26.264Z,19.77
2022-08-09T06:37:00.140Z,20.50
2022-08-09T06:39:47.502Z,21.66
2022-08-09T06:42:24.904Z,23.14
2022-08-09T06:44:58.911Z,24.39
2022-08-09T06:47:30.167Z,25.51
2022-08-09T06:50:14.575Z,26.59
2022-08-09T06:52:49.127Z,27.69
2022-08-09T06:55:22.892Z,28.52
2022-08-09T06:58:03.388Z,29.37
2022-08-09T07:00:49.821Z,30.03
2022-08-09T07:03:26.998Z,30.69
2022-08-09T07:06:04.042Z,31.21
2022-08-09T07:08:37.439Z,31.85
2022-08-09T07:11:12.542Z,32.41
2022-08-09T07:14:05.604Z,32.39
2022-08-09T07:16:42.522Z,32.21
2022-08-09T07:19:23.521Z,32.36
2022-08-09T07:21:57.515Z,32.73
2022-08-09T07:24:31.786Z,33.27
2022-08-09T07:27:03.694Z,33.93
2022-08-09T07:29:43.476Z,34.69
2022-08-09T07:32:16.394Z,35.31
2022-08-09T07:34:46.816Z,35.36
2022-08-09T07:37:22.086Z,35.39
2022-08-09T07:39:51.906Z,35.68
2022-08-09T07:42:26.073Z,36.01
2022-08-09T07:45:06.521Z,36.13
2022-08-09T07:48:04.147Z,36.23
2022-08-09T07:50:36.645Z,36.50
2022-08-09T07:53:07.261Z,36.66
2022-08-09T07:55:41.619Z,36.80
2022-08-09T07:58:26.957Z,36.72
2022-08-09T08:01:06.551Z,36.71
2022-08-09T08:03:40.927Z,36.62
2022-08-09T08:06:14.207Z,36.70
2022-08-09T08:09:03.070Z,36.62
2022-08-09T08:12:09.953Z,36.77
2022-08-09T08:14:24.079Z,36.83
2022-08-09T08:17:07.899Z,36.95
2022-08-09T08:19:42.100Z,36.74
2022-08-09T08:22:14.176Z,36.69
2022-08-09T08:24:48.643Z,36.87
2022-08-09T08:27:18.800Z,36.96
2022-08-09T08:29:52.302Z,36.91
2022-08-09T08:32:29.342Z,36.88
2022-08-09T08:34:59.599Z,36.85
2022-08-09T08:37:41.188Z,36.95
2022-08-09T08:40:19.482Z,37.02
2022-08-09T08:42:49.268Z,37.01
2022-08-09T08:45:36.989Z,37.23
2022-08-09T08:48:10.421Z,37.04
2022-08-09T08:50:52.062Z,36.90
2022-08-09T08:53:22.329Z,36.57
2022-08-09T08:55:52.344Z,36.38
2022-08-09T08:58:24.025Z,36.22
2022-08-09T09:00:57.428Z,35.84
2022-08-09T09:03:37.487Z,35.55
2022-08-09T09:06:09.572Z,35.29
2022-08-09T09:08:42.435Z,35.16
2022-08-09T09:11:17.710Z,34.99
2022-08-09T09:13:56.998Z,35.15
2022-08-09T09:16:30.693Z,35.63
2022-08-09T09:22:04.924Z,36.32
2022-08-09T09:24:38.772Z,35.79
2022-08-09T09:28:04.395Z,35.27
2022-08-09T09:30:32.965Z,34.89
2022-08-09T09:33:15.830Z,34.72
2022-08-09T09:36:11.717Z,34.85
2022-08-09T09:38:52.460Z,35.02
2022-08-09T09:41:49.309Z,35.19
2022-08-09T09:44:27.829Z,35.43
2022-08-09T09:47:07.936Z,35.38
2022-08-09T09:50:13.688Z,35.32
2022-08-09T09:52:35.975Z,35.39
2022-08-09T09:55:23.877Z,35.32
2022-08-09T09:58:18.855Z,35.60
2022-08-09T10:00:54.116Z,35.90
2022-08-09T10:03:42.825Z,35.55
2022-08-09T10:06:13.146Z,34.99
2022-08-09T10:08:55.111Z,34.56
2022-08-09T10:12:00.614Z,34.33
2022-08-09T10:14:33.209Z,34.14
2022-08-09T10:17:39.579Z,33.29
2022-08-09T10:20:03.388Z,32.23
2022-08-09T10:22:39.190Z,31.32
2022-08-09T10:25:14.209Z,30.52
2022-08-09T10:27:56.538Z,29.79
2022-08-09T10:33:29.758Z,28.35
2022-08-09T10:36:12.642Z,27.72
2022-08-09T10:38:56.158Z,27.26
2022-08-09T10:41:29.912Z,26.85
2022-08-09T10:44:02.333Z,26.64
2022-08-09T10:47:01.419Z,26.48
2022-08-09T10:49:42.382Z,26.27
2022-08-09T10:52:32.772Z,26.07
2022-08-09T10:55:05.281Z,25.97
2022-08-09T10:57:41.752Z,25.84
2022-08-09T11:00:36.576Z,25.77
2022-08-09T11:03:18.812Z,25.75
2022-08-09T11:06:22.707Z,25.76
2022-08-09T11:08:53.340Z,25.74
2022-08-09T11:11:24.703Z,25.75
2022-08-09T11:14:31.890Z,25.82
2022-08-09T11:17:04.684Z,25.88
2022-08-09T11:20:10.363Z,25.97
2022-08-09T11:23:10.045Z,26.09
2022-08-09T11:25:50.180Z,26.12
2022-08-09T11:28:55.990Z,26.07
2022-08-09T11:31:52.570Z,26.06
2022-08-09T11:34:35.253Z,26.00
2022-08-09T11:37:07.423Z,25.93
2022-08-09T11:40:03.000Z,25.90
2022-08-09T11:42:46.967Z,25.95
2022-08-09T11:45:26.332Z,26.01
2022-08-09T11:48:26.004Z,26.03
2022-08-09T11:53:02.971Z,26.05
2022-08-09T11:54:27.970Z,26.00
2022-08-09T11:57:47.821Z,25.97
2022-08-09T12:00:27.758Z,25.94
2022-08-09T12:02:58.325Z,25.95
2022-08-09T12:05:42.368Z,25.97
2022-08-09T12:08:21.935Z,25.94
2022-08-09T12:10:54.256Z,25.96
2022-08-09T12:14:07.874Z,26.03
2022-08-09T12:16:37.898Z,26.05
2022-08-09T12:19:11.447Z,26.04
2022-08-09T12:21:50.157Z,26.09
2022-08-09T12:24:28.162Z,26.11
2022-08-09T12:29:12.146Z,26.11
2022-08-09T12:29:59.985Z,26.12
2022-08-09T12:32:34.469Z,26.15
2022-08-09T12:35:05.110Z,26.16
2022-08-09T12:37:50.141Z,26.22
2022-08-09T12:40:27.286Z,26.28
2022-08-09T12:42:57.101Z,26.32
2022-08-09T12:45:33.642Z,26.39
2022-08-09T12:48:20.094Z,26.41
2022-08-09T12:50:59.733Z,26.49
2022-08-09T12:53:36.705Z,26.56
2022-08-09T12:56:43.648Z,26.62
2022-08-09T12:59:14.271Z,26.68
2022-08-09T13:01:48.693Z,26.71
2022-08-09T13:04:37.786Z,26.76
2022-08-09T13:07:16.654Z,26.81
2022-08-09T13:09:55.822Z,26.82
2022-08-09T13:12:40.026Z,26.82
2022-08-09T13:15:23.264Z,26.79
2022-08-09T13:18:05.501Z,26.75
2022-08-09T13:20:37.146Z,26.72
2022-08-09T13:24:06.872Z,26.70
2022-08-09T13:26:10.388Z,26.69
2022-08-09T13:28:42.628Z,26.71
2022-08-09T13:32:15.579Z,26.73
2022-08-09T13:34:04.951Z,26.77
2022-08-09T13:36:40.904Z,26.80
2022-08-09T13:41:55.411Z,26.79
2022-08-09T13:42:05.299Z,26.77
2022-08-09T13:44:38.338Z,26.83
2022-08-09T13:47:27.569Z,26.84
2022-08-09T13:50:02.798Z,26.93
2022-08-09T13:52:33.977Z,26.98
2022-08-09T13:55:07.408Z,26.98
2022-08-09T13:57:46.991Z,27.00
2022-08-09T14:00:29.634Z,27.06
2022-08-09T14:03:16.713Z,27.07
2022-08-09T14:05:59.681Z,27.09
2022-08-09T14:08:31.833Z,27.14
2022-08-09T14:11:02.051Z,27.13
2022-08-09T14:14:24.317Z,27.15
2022-08-09T14:16:28.167Z,27.16
2022-08-09T14:18:59.407Z,27.21
2022-08-09T14:21:32.020Z,27.22
2022-08-09T14:24:09.985Z,27.19
2022-08-09T14:26:55.015Z,27.18
2022-08-09T14:30:03.940Z,27.16
2022-08-09T14:32:19.842Z,27.20
2022-08-09T14:35:00.569Z,27.19
2022-08-09T14:37:41.288Z,27.20
2022-08-09T14:40:19.981Z,27.16
2022-08-09T14:43:08.737Z,27.11
2022-08-09T14:46:58.523Z,27.10
2022-08-09T14:48:30.541Z,27.15
2022-08-09T14:51:00.432Z,27.21
2022-08-09T14:53:30.249Z,27.19
2022-08-09T14:56:01.256Z,27.16
2022-08-09T14:58:32.908Z,27.12
2022-08-09T15:01:03.173Z,27.07
2022-08-09T15:03:36.245Z,27.06
2022-08-09T15:06:05.917Z,27.04
2022-08-09T15:08:38.013Z,27.02
2022-08-09T15:11:10.918Z,27.01
2022-08-09T15:13:48.050Z,26.99
2022-08-09T15:16:29.645Z,26.99
2022-08-09T15:19:15.987Z,27.04
2022-08-09T15:21:55.465Z,27.07
2022-08-09T15:24:29.619Z,27.07
2022-08-09T15:26:59.367Z,27.07
2022-08-09T15:30:55.609Z,27.05
2022-08-09T15:32:28.436Z,27.02
2022-08-09T15:35:40.868Z,26.96
2022-08-09T15:38:10.497Z,26.95
2022-08-09T15:40:44.278Z,26.95
2022-08-09T15:43:14.844Z,26.95
2022-08-09T15:45:51.965Z,26.95
2022-08-09T15:48:34.758Z,26.95
2022-08-09T15:51:30.536Z,26.99
2022-08-09T15:54:03.885Z,27.00
2022-08-09T15:56:39.305Z,27.00
2022-08-09T15:59:08.879Z,27.01
2022-08-09T16:01:38.781Z,26.98
2022-08-09T16:04:13.428Z,26.94
2022-08-09T16:06:50.658Z,26.90
2022-08-09T16:09:32.568Z,26.88
2022-08-09T16:12:11.427Z,26.85
2022-08-09T16:14:41.253Z,26.84
2022-08-09T16:17:12.550Z,26.83
2022-08-09T16:19:49.686Z,26.82
2022-08-09T16:22:42.302Z,26.82
2022-08-09T16:25:18.352Z,26.80
2022-08-09T16:28:07.334Z,26.79
2022-08-09T16:30:36.966Z,26.77
2022-08-09T16:33:15.695Z,26.77
2022-08-09T16:35:56.776Z,26.76
2022-08-09T16:38:30.338Z,26.72
2022-08-09T16:41:04.089Z,26.69
2022-08-09T16:43:34.155Z,26.67
2022-08-09T16:46:12.433Z,26.65
2022-08-09T16:48:53.227Z,26.62
2022-08-09T16:51:29.032Z,26.57
2022-08-09T16:54:28.271Z,26.54
2022-08-09T16:56:50.844Z,26.50
2022-08-09T16:59:21.167Z,26.47
2022-08-09T17:01:52.901Z,26.45
2022-08-09T17:04:25.461Z,26.41
2022-08-09T17:08:40.221Z,26.39
2022-08-09T17:09:48.069Z,26.35
2022-08-09T17:12:19.528Z,26.31
2022-08-09T17:14:54.903Z,26.27
2022-08-09T17:17:28.157Z,26.23
2022-08-09T17:20:30.214Z,26.18
2022-08-09T17:22:52.397Z,26.15
2022-08-09T17:25:25.311Z,26.12
2022-08-09T17:28:00.729Z,26.09
2022-08-09T17:30:30.975Z,26.07
2022-08-09T17:33:05.543Z,26.04
2022-08-09T17:35:51.861Z,26.00
2022-08-09T17:38:30.624Z,25.96
2022-08-09T17:41:05.612Z,25.90
2022-08-09T17:43:37.131Z,25.86
2022-08-09T17:46:09.030Z,25.81
2022-08-09T17:48:51.811Z,25.77
2022-08-09T17:51:22.050Z,25.73
2022-08-09T17:53:55.461Z,25.70
2022-08-09T17:56:35.205Z,25.65
2022-08-09T17:59:11.503Z,25.60
2022-08-09T18:02:07.559Z,25.54
2022-08-09T18:04:32.361Z,25.48
2022-08-09T18:07:04.784Z,25.44
2022-08-09T18:09:41.324Z,25.38
2022-08-09T18:12:19.638Z,25.33
2022-08-09T18:14:56.552Z,25.26
2022-08-09T18:18:02.187Z,25.22
2022-08-09T18:21:00.522Z,25.14
2022-08-09T18:23:14.166Z,25.07
2022-08-09T18:26:00.541Z,24.98
2022-08-09T18:30:36.241Z,24.88
2022-08-09T18:31:32.418Z,24.81
2022-08-09T18:34:14.583Z,24.75
2022-08-09T18:36:49.482Z,24.68
2022-08-09T18:39:19.386Z,24.59
2022-08-09T18:41:53.211Z,24.50
2022-08-09T18:44:26.487Z,24.43
2022-08-09T18:47:08.093Z,24.36
2022-08-09T18:49:46.891Z,24.28
2022-08-09T18:52:18.855Z,24.20
2022-08-09T18:54:58.068Z,24.09
2022-08-09T18:57:38.442Z,23.99
2022-08-09T19:00:20.508Z,23.87
2022-08-09T19:02:51.026Z,23.76
2022-08-09T19:05:41.256Z,23.69
2022-08-09T19:08:14.198Z,23.56
2022-08-09T19:10:48.740Z,23.47
2022-08-09T19:13:38.760Z,23.40
2022-08-09T19:16:13.434Z,23.32
2022-08-09T19:18:50.861Z,23.27
2022-08-09T19:21:47.656Z,23.22
2022-08-09T19:24:35.981Z,23.13
2022-08-09T19:27:01.199Z,23.07
2022-08-09T19:29:30.860Z,23.03
2022-08-09T19:32:26.611Z,23.00
2022-08-09T19:35:00.023Z,22.95
2022-08-09T19:37:41.001Z,22.92
2022-08-09T19:40:19.720Z,22.87
2022-08-09T19:42:49.921Z,22.81
2022-08-09T19:45:20.187Z,22.73
2022-08-09T19:47:52.790Z,22.68
2022-08-09T19:50:49.085Z,22.63
2022-08-09T19:53:13.257Z,22.59
2022-08-09T19:56:02.106Z,22.59
2022-08-09T19:58:32.825Z,22.57
2022-08-09T20:01:02.486Z,22.59
2022-08-09T20:04:12.330Z,22.59
2022-08-09T20:06:29.772Z,22.55
2022-08-09T20:09:01.080Z,22.52
2022-08-09T20:11:42.972Z,22.50
2022-08-09T20:14:15.393Z,22.51
2022-08-09T20:16:53.579Z,22.52
2022-08-09T20:19:49.544Z,22.50
2022-08-09T20:22:16.638Z,22.44
2022-08-09T20:24:53.246Z,22.41
2022-08-09T20:27:24.153Z,22.33
2022-08-09T20:29:53.864Z,22.28
2022-08-09T20:32:30.374Z,22.23
2022-08-09T20:35:05.743Z,22.22
2022-08-09T20:38:19.340Z,22.19
2022-08-09T20:40:26.834Z,22.15
2022-08-09T20:42:59.967Z,22.14
2022-08-09T20:45:59.070Z,22.09
2022-08-09T20:48:32.043Z,22.05
2022-08-09T20:51:04.442Z,22.03
2022-08-09T20:53:37.355Z,21.99
2022-08-09T20:56:20.411Z,21.94
2022-08-09T20:58:57.844Z,21.87
2022-08-09T21:01:34.197Z,21.80
2022-08-09T21:05:53.797Z,21.81
2022-08-09T21:07:14.030Z,21.78
2022-08-09T21:09:57.056Z,21.81
2022-08-09T21:12:56.367Z,21.79
2022-08-09T21:15:23.695Z,21.77
2022-08-09T21:18:22.312Z,21.76
2022-08-09T21:20:54.554Z,21.74
2022-08-09T21:23:51.047Z,21.69
2022-08-09T21:26:18.260Z,21.65
2022-08-09T21:28:56.053Z,21.62
2022-08-09T21:31:49.156Z,21.58
2022-08-09T21:34:28.448Z,21.51
2022-08-09T21:36:58.942Z,21.48
2022-08-09T21:39:42.249Z,21.48
2022-08-09T21:42:12.898Z,21.47
2022-08-09T21:44:43.604Z,21.43
2022-08-09T21:47:18.387Z,21.43
2022-08-09T21:49:49.598Z,21.44
2022-08-09T21:52:22.017Z,21.44
2022-08-09T21:55:03.283Z,21.43
2022-08-09T21:57:38.278Z,21.39
2022-08-09T22:00:31.799Z,21.38
2022-08-09T22:03:04.605Z,21.36
2022-08-09T22:05:37.382Z,21.35
2022-08-09T22:08:14.716Z,21.36
2022-08-09T22:11:00.294Z,21.33
2022-08-09T22:13:42.273Z,21.30
2022-08-09T22:16:13.664Z,21.28
2022-08-09T22:18:54.089Z,21.30
2022-08-09T22:21:45.380Z,21.31
2022-08-09T22:24:17.335Z,21.33
2022-08-09T22:26:53.441Z,21.31
2022-08-09T22:29:28.966Z,21.28
2022-08-09T22:32:29.330Z,21.27
2022-08-09T22:35:05.849Z,21.26
2022-08-09T22:37:40.013Z,21.22
2022-08-09T22:40:20.221Z,21.16
2022-08-09T22:42:52.620Z,21.09
2022-08-09T22:48:14.813Z,21.03
2022-08-09T22:48:30.214Z,20.99
2022-08-09T22:51:01.550Z,20.97
2022-08-09T22:53:58.442Z,20.92
2022-08-09T22:56:34.326Z,20.86
2022-08-09T22:59:55.927Z,20.78
2022-08-09T23:01:56.749Z,20.73
2022-08-09T23:04:26.579Z,20.70
2022-08-09T23:07:16.376Z,20.64
2022-08-09T23:09:46.119Z,20.57
2022-08-09T23:12:15.695Z,20.55
2022-08-09T23:14:47.878Z,20.50
2022-08-09T23:17:24.602Z,20.49
2022-08-09T23:20:07.369Z,20.48
2022-08-09T23:22:38.041Z,20.44
2022-08-09T23:25:08.464Z,20.41
2022-08-09T23:27:58.443Z,20.38
2022-08-09T23:30:30.281Z,20.34
2022-08-09T23:33:00.035Z,20.31
2022-08-09T23:35:29.673Z,20.29
2022-08-09T23:37:59.277Z,20.28
2022-08-09T23:40:28.893Z,20.24
2022-08-09T23:42:58.517Z,20.20
2022-08-09T23:45:37.342Z,20.18
2022-08-09T23:48:09.264Z,20.18
2022-08-09T23:50:38.932Z,20.14
2022-08-09T23:53:09.614Z,20.10
2022-08-09T23:55:49.547Z,20.09
2022-08-09T23:58:29.146Z,20.07
